Time;durP1;ratioP1;P1;durP2;ratioP2;P2;SDS_P1;SDS_P2;PMS_P1;PMS_P2;Temp;Humidity;BMP_temperature;BMP_pressure;BME280_temperature;BME280_humidity;BME280_pressure;Samples;Min_cycle;Max_cycle;Signal;HPM_P1;HPM_P2
2022/02/04 00:10:02;;;;;;;36.55;14.30;;;1.40;99.90;;;;;;4850131;29;20039;-80
2022/02/04 01:26:14;;;;;;;8.57;3.42;;;1.90;99.90;;;;;;4961849;29;20022;-79
2022/02/04 01:28:44;;;;;;;9.43;3.80;;;2.00;99.90;;;;;;4960898;28;20036;-80
2022/02/04 01:31:15;;;;;;;13.15;3.22;;;2.10;99.90;;;;;;4961887;29;20023;-80
2022/02/04 01:33:41;;;;;;;16.25;3.90;;;2.00;99.90;;;;;;4961280;28;20054;-80
2022/02/04 01:36:07;;;;;;;;;;;2.10;99.90;;;;;;4961275;28;20012;-78
2022/02/04 01:38:33;;;;;;;13.55;4.28;;;2.10;99.90;;;;;;4961155;29;19902;-79
2022/02/04 01:40:59;;;;;;;11.68;4.20;;;2.10;99.90;;;;;;4960921;28;20026;-79
2022/02/04 01:43:25;;;;;;;13.02;4.10;;;2.10;99.90;;;;;;4960911;28;20040;-79
2022/02/04 01:45:57;;;;;;;10.45;3.67;;;2.20;99.90;;;;;;4961688;29;20032;-79
2022/02/04 01:48:23;;;;;;;14.90;4.68;;;2.10;99.90;;;;;;4958602;29;20026;-79
2022/02/04 01:50:51;;;;;;;13.75;4.93;;;2.00;99.90;;;;;;4952255;29;20026;-78
2022/02/04 01:53:20;;;;;;;10.95;4.97;;;2.10;99.90;;;;;;4950755;29;20262;-79
2022/02/04 01:55:48;;;;;;;24.40;10.32;;;2.00;99.90;;;;;;4949650;29;20063;-79
2022/02/04 01:58:14;;;;;;;25.42;11.68;;;2.10;99.90;;;;;;4950706;29;20027;-79
2022/02/04 02:00:41;;;;;;;27.70;10.07;;;2.20;99.90;;;;;;4950418;29;20062;-78
2022/02/04 02:03:08;;;;;;;22.35;8.88;;;2.30;99.90;;;;;;4951281;29;20024;-80
2022/02/04 02:05:35;;;;;;;18.67;6.25;;;2.40;99.90;;;;;;4936209;29;20028;-79
2022/02/04 02:08:06;;;;;;;12.38;5.20;;;2.40;99.90;;;;;;4953680;29;20087;-79
2022/02/04 02:10:32;;;;;;;16.80;6.10;;;2.40;99.90;;;;;;4951722;29;20023;-80
2022/02/04 02:15:38;;;;;;;18.70;7.30;;;2.20;99.90;;;;;;4955805;29;19934;-79
2022/02/04 02:53:56;;;;;;;16.92;6.13;;;2.00;99.90;;;;;;4937619;29;20054;-80
2022/02/04 02:59:12;;;;;;;16.08;5.78;;;2.10;99.90;;;;;;4963533;29;20024;-79
2022/02/04 03:01:44;;;;;;;22.90;9.45;;;2.00;99.90;;;;;;4964211;29;20039;-79
2022/02/04 03:04:14;;;;;;;17.42;6.10;;;2.10;99.90;;;;;;4964342;29;20060;-79
2022/02/04 03:06:40;;;;;;;12.68;4.72;;;2.10;99.90;;;;;;4964060;29;20004;-79
2022/02/04 03:09:05;;;;;;;;;;;2.20;99.90;;;;;;4964286;29;20114;-78
2022/02/04 03:11:33;;;;;;;23.42;8.05;;;2.20;99.90;;;;;;4963473;29;20020;-80
2022/02/04 03:13:59;;;;;;;20.63;8.90;;;2.20;99.90;;;;;;4963219;28;20042;-79
2022/02/04 03:16:25;;;;;;;23.52;9.02;;;2.20;99.90;;;;;;4963489;29;20026;-79
2022/02/04 03:18:53;;;;;;;;;;;2.20;99.90;;;;;;4964260;28;20047;-79
2022/02/04 03:21:28;;;;;;;23.80;9.60;;;2.20;99.90;;;;;;4964167;29;19895;-79
2022/02/04 03:24:04;;;;;;;32.55;13.88;;;2.00;99.90;;;;;;4963613;28;20012;-79
2022/02/04 03:26:44;;;;;;;21.80;10.25;;;2.10;99.90;;;;;;4947778;29;20079;-80
2022/02/04 03:29:10;;;;;;;22.55;8.32;;;2.10;99.90;;;;;;4946565;29;20039;-80
2022/02/04 03:31:45;;;;;;;;;;;2.20;99.90;;;;;;4963498;28;20036;-79
2022/02/04 03:34:11;;;;;;;16.63;5.88;;;2.10;99.90;;;;;;4962928;29;19909;-80
2022/02/04 03:36:36;;;;;;;;;;;2.00;99.90;;;;;;4947488;29;20031;-79
2022/02/04 03:39:03;;;;;;;17.10;8.15;;;2.10;99.90;;;;;;4962075;28;19915;-79
2022/02/04 03:41:29;;;;;;;24.05;10.40;;;2.30;99.90;;;;;;4961240;28;20020;-79
2022/02/04 03:43:55;;;;;;;;;;;2.20;99.90;;;;;;4945510;29;20035;-79
2022/02/04 03:46:21;;;;;;;48.63;22.17;;;2.20;99.90;;;;;;4944741;29;19911;-79
2022/02/04 03:48:47;;;;;;;;;;;2.20;99.90;;;;;;4945048;29;20024;-79
2022/02/04 03:51:13;;;;;;;28.58;12.70;;;2.30;99.90;;;;;;4942610;29;19902;-79
2022/02/04 03:53:38;;;;;;;;;;;2.20;99.90;;;;;;4944436;29;20028;-80
2022/02/04 03:56:04;;;;;;;34.75;13.43;;;2.20;99.90;;;;;;4953195;29;19907;-80
2022/02/04 03:58:32;;;;;;;;;;;2.10;99.90;;;;;;4961759;29;20027;-79
2022/02/04 04:00:58;;;;;;;;;;;2.30;99.90;;;;;;4960292;29;19911;-80
2022/02/04 04:03:23;;;;;;;31.08;14.48;;;2.40;99.90;;;;;;4959125;29;19890;-79
2022/02/04 04:05:50;;;;;;;;;;;2.40;99.90;;;;;;4943453;29;20034;-80
2022/02/04 04:08:17;;;;;;;35.70;17.30;;;2.30;99.90;;;;;;4958293;28;19918;-79
2022/02/04 04:10:43;;;;;;;55.33;21.10;;;2.30;99.90;;;;;;4943535;29;20035;-79
2022/02/04 04:13:11;;;;;;;21.98;9.18;;;2.40;99.90;;;;;;5226674;23;20143;-79
2022/02/04 04:15:37;;;;;;;22.63;10.18;;;2.50;99.90;;;;;;4919965;29;20017;-80
2022/02/04 04:18:03;;;;;;;;;;;2.50;99.90;;;;;;4921215;29;20039;-79
2022/02/04 04:20:30;;;;;;;24.38;10.05;;;2.50;99.90;;;;;;4920351;29;19914;-79
2022/02/04 04:22:57;;;;;;;20.48;8.25;;;2.40;99.90;;;;;;4904019;29;20049;-78
2022/02/04 04:25:23;;;;;;;22.80;8.77;;;2.40;99.90;;;;;;4919661;29;20044;-79
2022/02/04 04:27:49;;;;;;;;;;;2.40;99.90;;;;;;4920867;29;20065;-79
2022/02/04 04:30:19;;;;;;;13.20;4.35;;;2.50;99.90;;;;;;4907823;29;19895;-79
2022/02/04 04:32:46;;;;;;;14.40;4.13;;;2.40;99.90;;;;;;4923268;29;20017;-79
2022/02/04 04:35:15;;;;;;;13.20;3.55;;;2.40;99.90;;;;;;4922964;29;20035;-78
2022/02/04 04:37:49;;;;;;;15.98;4.72;;;2.40;99.90;;;;;;4906716;29;20109;-79
2022/02/04 04:45:33;;;;;;;;;;;2.30;99.90;;;;;;4923525;29;20017;-78
2022/02/04 05:28:57;;;;;;;;;;;2.20;99.90;;;;;;4959728;29;20032;-79
2022/02/04 05:31:23;;;;;;;9.77;3.65;;;2.20;99.90;;;;;;4939370;29;19917;-79
2022/02/04 05:33:49;;;;;;;;;;;2.20;99.90;;;;;;4942121;29;20056;-82
2022/02/04 05:36:15;;;;;;;15.25;3.20;;;2.20;99.90;;;;;;4961367;29;19894;-81
2022/02/04 05:38:43;;;;;;;15.45;4.68;;;2.20;99.90;;;;;;4959380;29;20032;-78
2022/02/04 05:41:11;;;;;;;;;;;2.20;99.90;;;;;;4932108;29;20042;-78
2022/02/04 05:43:39;;;;;;;18.05;4.82;;;2.20;99.90;;;;;;4942972;29;19958;-79
2022/02/04 05:46:19;;;;;;;13.90;5.78;;;2.10;99.90;;;;;;4942441;29;20007;-79
2022/02/04 05:48:50;;;;;;;17.85;4.25;;;2.10;99.90;;;;;;4958029;29;20020;-78
2022/02/04 05:51:32;;;;;;;22.20;5.30;;;2.00;99.90;;;;;;4958117;29;20012;-80
2022/02/04 05:54:07;;;;;;;18.23;6.95;;;2.00;99.90;;;;;;4938645;29;20047;-79
2022/02/04 05:56:58;;;;;;;20.58;5.40;;;2.00;99.90;;;;;;4956514;29;20056;-79
2022/02/04 06:02:05;;;;;;;11.40;4.35;;;2.00;99.90;;;;;;4959970;29;20020;-79
2022/02/04 06:04:40;;;;;;;13.07;4.45;;;1.90;99.90;;;;;;4958903;29;20039;-79
2022/02/04 06:07:19;;;;;;;14.23;5.35;;;2.00;99.90;;;;;;4940106;29;20034;-78
2022/02/04 06:10:13;;;;;;;17.60;5.15;;;2.00;99.90;;;;;;4957540;29;20035;-80
2022/02/04 06:13:10;;;;;;;24.88;6.25;;;2.20;99.90;;;;;;4959636;29;20027;-77
2022/02/04 06:23:29;;;;;;;50.47;32.60;;;2.20;99.90;;;;;;4973967;29;20046;-79
2022/02/04 06:25:57;;;;;;;;;;;2.30;99.90;;;;;;4955859;28;20129;-80
2022/02/04 06:28:25;;;;;;;13.60;5.00;;;2.40;99.90;;;;;;4967712;29;19913;-77
2022/02/04 06:30:51;;;;;;;14.95;4.38;;;2.40;99.90;;;;;;4946172;29;20037;-79
2022/02/04 06:33:17;;;;;;;;;;;2.40;99.90;;;;;;4943191;29;20090;-79
2022/02/04 06:35:43;;;;;;;25.92;9.65;;;2.50;99.90;;;;;;4964843;29;20274;-79
2022/02/04 06:38:09;;;;;;;25.98;12.18;;;2.40;99.90;;;;;;4952521;29;20094;-78
2022/02/04 06:40:34;;;;;;;;;;;2.50;99.90;;;;;;4942450;29;20031;-77
2022/02/04 06:43:00;;;;;;;24.17;11.02;;;2.40;99.90;;;;;;4940501;29;19906;-79
2022/02/04 06:45:26;;;;;;;;;;;2.40;99.90;;;;;;4946111;29;20551;-78
2022/02/04 06:47:52;;;;;;;11.98;6.03;;;2.50;99.90;;;;;;4961220;28;19902;-79
2022/02/04 06:50:17;;;;;;;;;;;2.50;99.90;;;;;;4960610;28;20031;-78
2022/02/04 06:52:43;;;;;;;12.68;5.70;;;2.50;99.90;;;;;;4962855;28;19917;-80
2022/02/04 06:55:10;;;;;;;;;;;2.60;99.90;;;;;;4963120;28;20031;-79
2022/02/04 06:57:36;;;;;;;14.93;5.97;;;2.70;99.90;;;;;;4963214;28;19906;-79
2022/02/04 07:00:02;;;;;;;;;;;2.60;99.90;;;;;;4979396;28;20015;-80
2022/02/04 07:02:28;;;;;;;25.70;14.23;;;2.70;99.90;;;;;;4979561;28;19911;-80
2022/02/04 07:04:54;;;;;;;28.83;15.18;;;2.80;99.90;;;;;;4962617;28;20083;-80
2022/02/04 07:07:20;;;;;;;;;;;2.80;99.90;;;;;;4979959;28;20097;-80
2022/02/04 07:09:54;;;;;;;14.80;7.07;;;2.90;99.90;;;;;;4978989;28;19965;-80
2022/02/04 07:12:27;;;;;;;11.70;4.90;;;2.90;99.90;;;;;;4980499;28;20012;-80
2022/02/04 07:17:35;;;;;;;25.13;7.82;;;3.00;99.90;;;;;;4982529;28;20051;-79
2022/02/04 07:20:02;;;;;;;26.45;7.43;;;3.10;99.90;;;;;;4966964;28;20043;-79
2022/02/04 07:22:38;;;;;;;24.58;7.82;;;3.20;99.90;;;;;;4966639;28;20015;-79
2022/02/04 07:25:06;;;;;;;18.13;6.20;;;3.30;99.90;;;;;;4981606;28;20467;-79
2022/02/04 07:27:34;;;;;;;17.00;8.32;;;3.30;99.90;;;;;;4977765;29;20274;-80
2022/02/04 07:30:00;;;;;;;20.58;8.38;;;3.40;99.90;;;;;;4960488;29;20023;-80
2022/02/04 07:32:39;;;;;;;15.65;5.65;;;3.40;99.90;;;;;;4965766;28;20043;-80
2022/02/04 07:40:54;;;;;;;22.60;7.82;;;3.70;99.70;;;;;;4969878;29;20050;-79
2022/02/04 07:43:22;;;;;;;18.20;4.72;;;3.90;98.50;;;;;;4951731;29;20046;-79
2022/02/04 07:45:48;;;;;;;15.30;5.22;;;3.90;98.70;;;;;;4965391;29;20058;-79
2022/02/04 07:48:15;;;;;;;18.17;6.50;;;4.00;97.90;;;;;;4944412;29;20035;-79
2022/02/04 07:50:43;;;;;;;15.45;6.78;;;4.20;97.30;;;;;;4957521;29;20034;-79
2022/02/04 07:53:09;;;;;;;20.80;6.13;;;4.30;96.80;;;;;;4958685;28;20099;-80
2022/02/04 07:55:37;;;;;;;;;;;4.10;96.60;;;;;;4976935;29;20027;-80
2022/02/04 07:58:03;;;;;;;23.75;8.05;;;4.10;96.90;;;;;;4954117;29;19906;-78
2022/02/04 08:00:29;;;;;;;21.50;8.70;;;4.20;96.60;;;;;;4950245;29;20098;-80
2022/02/04 08:02:55;;;;;;;;;;;4.30;97.20;;;;;;4956542;28;20039;-80
2022/02/04 08:05:25;;;;;;;23.95;8.27;;;4.40;96.40;;;;;;4960433;29;20039;-80
2022/02/04 08:10:44;;;;;;;20.77;8.32;;;4.40;97.50;;;;;;4971652;28;20027;-80
2022/02/04 08:16:17;;;;;;;22.80;10.20;;;4.70;95.60;;;;;;4976492;29;20043;-79
2022/02/04 08:32:26;;;;;;;22.38;11.77;;;6.70;75.00;;;;;;4967271;29;20051;-78
2022/02/04 08:35:17;;;;;;;27.00;11.03;;;7.20;70.90;;;;;;4971122;28;20428;-80
2022/02/04 08:37:59;;;;;;;13.82;7.18;;;7.50;68.00;;;;;;4981293;28;20257;-79
2022/02/04 08:47:03;;;;;;;20.60;6.93;;;7.80;64.50;;;;;;4982507;28;20022;-79
2022/02/04 08:49:18;;;;;;;17.75;6.80;;;8.20;63.40;;;;;;4965304;28;20099;-79
2022/02/04 08:52:06;;;;;;;20.42;7.72;;;8.70;61.10;;;;;;4979682;28;20015;-79
2022/02/04 08:57:04;;;;;;;;;;;9.30;56.00;;;;;;4982001;28;20039;-79
2022/02/04 08:59:48;;;;;;;13.73;6.55;;;9.20;56.90;;;;;;4978527;28;19997;-80
2022/02/04 09:02:31;;;;;;;15.27;6.63;;;9.20;56.40;;;;;;4979293;29;20058;-79
2022/02/04 09:04:58;;;;;;;20.00;10.02;;;9.30;57.00;;;;;;4980450;28;20081;-79
2022/02/04 09:07:28;;;;;;;19.05;7.80;;;9.80;56.60;;;;;;4978608;28;20008;-79
2022/02/04 09:09:59;;;;;;;13.65;7.38;;;10.40;55.60;;;;;;4978564;28;20015;-80
2022/02/04 09:20:11;;;;;;;;;;;11.80;47.10;;;;;;4973889;28;20108;-79
2022/02/04 09:22:45;;;;;;;16.60;8.18;;;11.40;46.80;;;;;;4948484;29;19917;-78
2022/02/04 09:25:12;;;;;;;17.60;8.25;;;11.20;47.40;;;;;;4974184;28;20059;-80
2022/02/04 09:27:38;;;;;;;18.30;8.20;;;11.10;49.00;;;;;;4971835;29;20035;-84
2022/02/04 09:30:10;;;;;;;22.75;8.43;;;11.30;48.40;;;;;;4957779;29;20035;-84
2022/02/04 09:32:39;;;;;;;23.73;8.65;;;11.40;47.90;;;;;;4938718;29;20031;-86
2022/02/04 09:35:25;;;;;;;12.38;7.00;;;11.30;47.60;;;;;;4975977;28;20043;-79
2022/02/04 09:37:53;;;;;;;18.08;8.60;;;10.90;47.40;;;;;;4977665;28;20035;-79
2022/02/04 09:40:20;;;;;;;17.60;7.97;;;10.90;48.70;;;;;;4981436;28;20023;-79
2022/02/04 09:42:47;;;;;;;15.43;6.63;;;10.70;48.50;;;;;;4981154;28;20016;-79
2022/02/04 09:45:16;;;;;;;14.98;7.82;;;10.20;49.90;;;;;;4981254;28;20016;-79
2022/02/04 09:47:49;;;;;;;14.85;8.50;;;9.80;51.00;;;;;;4980455;28;20117;-79
2022/02/04 09:50:20;;;;;;;15.95;7.60;;;9.60;51.90;;;;;;4981170;28;20035;-79
2022/02/04 10:07:29;;;;;;;18.33;9.13;;;7.90;60.80;;;;;;4963597;29;20480;-79
2022/02/04 10:10:23;;;;;;;13.50;8.18;;;7.70;61.70;;;;;;4975049;28;20039;-77
2022/02/04 10:18:05;;;;;;;18.88;8.43;;;7.00;65.80;;;;;;4959299;29;20046;-81
2022/02/04 10:20:32;;;;;;;17.73;8.63;;;6.80;66.20;;;;;;4972604;29;20011;-80
2022/02/04 10:22:59;;;;;;;17.52;8.15;;;6.70;68.20;;;;;;4975615;29;20042;-77
2022/02/04 10:25:32;;;;;;;18.17;7.22;;;6.80;69.60;;;;;;4966289;29;20027;-81
2022/02/04 10:28:04;;;;;;;16.27;7.53;;;6.80;71.50;;;;;;4937753;29;20484;-75
2022/02/04 10:30:32;;;;;;;15.52;7.20;;;6.80;68.60;;;;;;4950622;29;20042;-75
2022/02/04 10:32:59;;;;;;;15.93;8.50;;;6.70;69.10;;;;;;4952516;29;20043;-77
2022/02/04 10:35:31;;;;;;;17.40;7.47;;;6.70;70.80;;;;;;4956370;29;20134;-75
2022/02/04 10:38:28;;;;;;;14.73;7.43;;;6.60;72.20;;;;;;4962918;29;20026;-78
2022/02/04 10:41:13;;;;;;;20.98;8.88;;;6.50;73.40;;;;;;4969905;29;20027;-76
2022/02/04 10:43:56;;;;;;;19.80;7.45;;;6.50;75.20;;;;;;4966021;29;20028;-78
2022/02/04 11:07:08;;;;;;;25.00;13.05;;;6.40;80.60;;;;;;4978793;28;20034;-79
2022/02/04 11:52:27;;;;;;;26.98;14.00;;;6.60;78.50;;;;;;4978436;28;20048;-79
2022/02/04 11:54:59;;;;;;;24.80;11.93;;;6.60;80.20;;;;;;4978404;28;20039;-79
2022/02/04 11:57:27;;;;;;;19.35;8.98;;;6.60;79.70;;;;;;4973719;28;20504;-79
2022/02/04 11:59:56;;;;;;;19.17;8.80;;;6.70;79.80;;;;;;4962746;28;20476;-79
2022/02/04 12:02:28;;;;;;;18.23;8.52;;;6.70;79.40;;;;;;4963841;29;20031;-79
2022/02/04 12:05:11;;;;;;;15.50;8.25;;;6.90;78.00;;;;;;4980518;28;20711;-80
2022/02/04 12:07:58;;;;;;;17.30;9.18;;;6.90;78.20;;;;;;4961191;29;20060;-79
2022/02/04 12:10:39;;;;;;;22.63;9.93;;;6.90;77.90;;;;;;4980675;28;20091;-80
2022/02/04 12:13:09;;;;;;;19.70;10.27;;;7.00;78.20;;;;;;4981532;28;20051;-79
2022/02/04 12:15:55;;;;;;;19.48;7.97;;;6.90;75.60;;;;;;4965774;28;20043;-79
2022/02/04 12:18:51;;;;;;;15.90;8.63;;;6.70;75.10;;;;;;4982077;28;20015;-79
2022/02/04 12:21:21;;;;;;;13.70;7.55;;;6.60;79.10;;;;;;4981388;28;20007;-79
2022/02/04 12:23:53;;;;;;;14.90;8.05;;;6.60;81.90;;;;;;4965170;28;20039;-79
2022/02/04 12:26:22;;;;;;;16.25;7.38;;;6.70;81.70;;;;;;4977583;28;20032;-79
2022/02/04 12:29:01;;;;;;;19.42;8.70;;;6.80;81.40;;;;;;4981818;28;20039;-80
2022/02/04 12:31:38;;;;;;;18.38;8.07;;;7.00;80.50;;;;;;4981216;28;20007;-79
2022/02/04 12:34:11;;;;;;;20.77;10.13;;;7.10;78.90;;;;;;4980616;28;20053;-79
2022/02/04 12:36:58;;;;;;;26.40;10.85;;;7.30;76.30;;;;;;4975979;28;20011;-79
2022/02/04 12:39:26;;;;;;;428.98;194.48;;;7.40;74.20;;;;;;4979018;28;20038;-80
2022/02/04 12:42:21;;;;;;;61.85;35.80;;;7.70;71.10;;;;;;4964990;28;20118;-79
2022/02/04 12:44:50;;;;;;;37.35;19.27;;;7.60;69.70;;;;;;4965288;28;20047;-79
2022/02/04 12:47:20;;;;;;;35.63;19.30;;;7.60;69.70;;;;;;4965391;28;20015;-80
2022/02/04 12:49:55;;;;;;;21.35;11.75;;;7.50;70.80;;;;;;4979356;28;20035;-79
2022/02/04 12:52:30;;;;;;;19.30;9.85;;;7.60;69.90;;;;;;4977772;28;20019;-79
2022/02/04 12:55:09;;;;;;;23.33;15.50;;;7.50;69.70;;;;;;4959607;28;20497;-78
2022/02/04 12:57:57;;;;;;;21.42;10.55;;;7.40;69.50;;;;;;4972338;29;20042;-78
2022/02/04 13:03:16;;;;;;;19.20;9.85;;;7.50;70.60;;;;;;4973553;29;20019;-79
2022/02/04 13:08:44;;;;;;;21.00;8.68;;;7.50;69.20;;;;;;4966933;28;20182;-80
2022/02/04 13:11:15;;;;;;;21.88;7.90;;;7.50;69.80;;;;;;4960132;29;20468;-77
2022/02/04 13:13:46;;;;;;;17.35;8.73;;;7.60;69.30;;;;;;4971793;28;20058;-79
2022/02/04 13:16:29;;;;;;;21.05;8.68;;;7.80;68.30;;;;;;4981924;28;20022;-79
2022/02/04 13:19:01;;;;;;;19.30;8.63;;;7.80;69.30;;;;;;4978303;28;20035;-79
2022/02/04 13:21:28;;;;;;;17.85;8.45;;;7.70;68.80;;;;;;4965885;29;20083;-79
2022/02/04 13:23:55;;;;;;;16.00;8.50;;;8.00;67.20;;;;;;4947702;29;20019;-79
2022/02/04 13:26:29;;;;;;;21.08;8.18;;;7.80;67.80;;;;;;4941611;29;20031;-79
2022/02/04 13:29:00;;;;;;;18.10;8.63;;;7.70;68.30;;;;;;4963692;29;20020;-79
2022/02/04 13:31:27;;;;;;;19.13;10.35;;;7.90;68.00;;;;;;4974568;28;20023;-79
2022/02/04 13:33:56;;;;;;;23.38;10.70;;;7.80;68.20;;;;;;4978785;28;20027;-79
2022/02/04 13:36:54;;;;;;;26.73;11.35;;;7.70;69.90;;;;;;4962203;29;20059;-79
2022/02/04 13:44:58;;;;;;;29.45;12.73;;;7.90;67.40;;;;;;4977783;29;20035;-79
2022/02/04 13:47:38;;;;;;;35.08;13.45;;;7.80;67.50;;;;;;4976523;29;20039;-78
2022/02/04 13:53:13;;;;;;;16.33;8.25;;;7.90;67.30;;;;;;4976528;29;20020;-78
2022/02/04 13:58:49;;;;;;;;;;;8.00;66.40;;;;;;4978118;29;20039;-79
2022/02/04 14:01:23;;;;;;;17.27;8.82;;;8.20;65.50;;;;;;4972809;29;20371;-78
2022/02/04 14:03:53;;;;;;;17.52;8.52;;;8.20;64.90;;;;;;4970795;29;20095;-77
2022/02/04 14:06:25;;;;;;;18.45;9.00;;;8.30;63.80;;;;;;4973587;29;20510;-79
2022/02/04 14:11:39;;;;;;;15.63;7.50;;;8.20;62.90;;;;;;4966800;29;20154;-78
2022/02/04 14:14:08;;;;;;;21.35;8.52;;;8.30;63.20;;;;;;4969023;29;20055;-78
2022/02/04 14:16:34;;;;;;;23.80;11.70;;;8.20;63.40;;;;;;4969387;29;20035;-79
2022/02/04 14:19:01;;;;;;;20.60;10.43;;;8.20;63.90;;;;;;4965226;29;20427;-79
2022/02/04 14:21:26;;;;;;;16.25;9.43;;;8.00;65.40;;;;;;4972926;28;20010;-79
2022/02/04 14:23:56;;;;;;;22.13;8.55;;;7.90;65.60;;;;;;4971392;29;20049;-79
2022/02/04 14:26:27;;;;;;;18.33;8.55;;;7.80;65.80;;;;;;4974561;29;20062;-79
2022/02/04 14:28:58;;;;;;;22.25;7.72;;;7.70;66.70;;;;;;4952730;29;20026;-79
2022/02/04 15:00:44;;;;;;;22.00;9.02;;;7.30;71.80;;;;;;4957659;29;20063;-79
2022/02/04 15:05:48;;;;;;;42.95;17.10;;;7.20;73.40;;;;;;4957797;29;20108;-78
2022/02/04 15:08:18;;;;;;;38.10;16.05;;;7.20;73.80;;;;;;4959156;29;20091;-79
2022/02/04 15:10:47;;;;;;;42.80;19.85;;;7.00;75.30;;;;;;4960787;23;20044;-79
2022/02/04 15:13:15;;;;;;;26.48;15.02;;;6.90;76.50;;;;;;4937690;29;20093;-78
2022/02/04 15:15:42;;;;;;;45.83;19.77;;;6.70;78.80;;;;;;4939168;29;20075;-79
2022/02/04 15:18:09;;;;;;;45.80;25.10;;;6.70;80.00;;;;;;4920102;29;20020;-80
2022/02/04 15:20:35;;;;;;;42.65;20.58;;;6.50;81.20;;;;;;4938441;29;20031;-79
2022/02/04 15:23:01;;;;;;;;;;;6.50;82.20;;;;;;4919115;29;20036;-80
2022/02/04 15:25:27;;;;;;;31.88;16.35;;;6.40;83.40;;;;;;4934020;29;19935;-79
2022/02/04 15:30:31;;;;;;;28.70;13.60;;;6.30;84.00;;;;;;4934732;29;20028;-79
2022/02/04 15:32:57;;;;;;;31.95;13.73;;;6.30;85.00;;;;;;4938522;29;20012;-79
2022/02/04 15:35:23;;;;;;;20.67;10.68;;;6.20;86.30;;;;;;4920077;29;20032;-79
2022/02/04 15:37:49;;;;;;;20.90;9.52;;;6.20;87.00;;;;;;4930622;29;20036;-79
2022/02/04 15:40:16;;;;;;;23.42;10.73;;;6.10;87.30;;;;;;4931920;29;20047;-78
2022/02/04 15:42:53;;;;;;;23.70;9.73;;;6.20;87.30;;;;;;4930385;29;20029;-79
2022/02/04 15:50:39;;;;;;;27.05;10.27;;;6.00;90.20;;;;;;4930312;29;20059;-79
2022/02/04 15:53:26;;;;;;;18.00;9.70;;;6.00;91.00;;;;;;4913395;29;20043;-79
2022/02/04 15:58:51;;;;;;;32.10;16.13;;;5.90;92.10;;;;;;4932735;29;20024;-80
2022/02/04 16:04:17;;;;;;;26.10;14.40;;;5.90;92.80;;;;;;4930754;29;20047;-80
2022/02/04 16:06:45;;;;;;;42.75;19.77;;;5.90;92.60;;;;;;4929779;29;20469;-79
2022/02/04 16:09:10;;;;;;;39.80;17.80;;;5.90;93.00;;;;;;4912350;29;20024;-78
2022/02/04 16:17:13;;;;;;;23.05;12.63;;;6.00;93.40;;;;;;4902539;29;20044;-79
2022/02/04 16:19:54;;;;;;;25.17;12.10;;;6.00;94.00;;;;;;4912024;29;20028;-79
2022/02/04 16:22:33;;;;;;;25.20;12.48;;;5.90;94.20;;;;;;4928054;29;20100;-79
2022/02/04 16:30:05;;;;;;;26.40;12.82;;;5.80;95.00;;;;;;4928572;29;20401;-79
2022/02/04 16:32:31;;;;;;;27.48;13.50;;;5.80;95.40;;;;;;4912495;29;20040;-77
2022/02/04 16:35:01;;;;;;;43.63;23.30;;;5.80;95.10;;;;;;4917909;29;20032;-79
2022/02/04 16:37:30;;;;;;;66.43;30.40;;;5.80;95.10;;;;;;4931440;29;20463;-79
2022/02/04 16:40:05;;;;;;;53.58;26.60;;;5.70;95.60;;;;;;4938701;29;20005;-79
2022/02/04 16:42:34;;;;;;;43.85;21.80;;;5.60;96.20;;;;;;4921486;29;20083;-80
2022/02/04 16:45:00;;;;;;;37.42;21.42;;;5.50;96.60;;;;;;4919135;29;20008;-79
2022/02/04 16:47:26;;;;;;;66.25;33.55;;;5.30;97.60;;;;;;4911829;29;20028;-78
2022/02/04 16:49:52;;;;;;;126.28;56.30;;;5.20;98.00;;;;;;4917950;29;20028;-79
2022/02/04 16:52:18;;;;;;;111.40;49.10;;;5.20;98.90;;;;;;4927337;29;20093;-79
2022/02/04 16:54:44;;;;;;;;;;;5.00;99.00;;;;;;4921195;29;20062;-79
2022/02/04 16:57:10;;;;;;;161.98;73.25;;;5.00;99.30;;;;;;4923682;29;19895;-78
2022/02/04 16:59:35;;;;;;;;;;;4.90;99.60;;;;;;4930745;29;20032;-79
2022/02/04 17:02:02;;;;;;;43.38;23.25;;;4.90;99.90;;;;;;4926720;29;20002;-79
2022/02/04 17:04:27;;;;;;;28.92;14.98;;;4.80;99.90;;;;;;4912743;29;20501;-79
2022/02/04 17:06:59;;;;;;;33.47;13.30;;;4.70;99.90;;;;;;4936695;29;20043;-78
2022/02/04 17:09:48;;;;;;;23.83;12.38;;;4.50;99.90;;;;;;4910229;29;20040;-78
2022/02/04 17:12:17;;;;;;;36.00;15.25;;;4.50;99.90;;;;;;4921673;29;20048;-78
2022/02/04 17:14:43;;;;;;;28.25;14.98;;;4.40;99.90;;;;;;4930937;29;20043;-78
2022/02/04 17:17:08;;;;;;;26.05;13.30;;;4.40;99.90;;;;;;4929058;29;20040;-77
2022/02/04 17:19:46;;;;;;;27.92;13.82;;;4.40;99.90;;;;;;4921664;29;20036;-78
2022/02/04 17:22:14;;;;;;;31.63;15.07;;;4.30;99.90;;;;;;4926187;29;20036;-79
2022/02/04 17:24:40;;;;;;;31.23;17.10;;;4.20;99.90;;;;;;4925822;29;20027;-78
2022/02/04 17:27:06;;;;;;;44.58;18.30;;;4.10;99.90;;;;;;4930827;29;20401;-79
2022/02/04 17:29:32;;;;;;;50.60;28.05;;;4.10;99.90;;;;;;4920158;29;20047;-78
2022/02/04 17:31:58;;;;;;;34.13;16.08;;;4.10;99.90;;;;;;4922581;29;20024;-79
2022/02/04 17:34:24;;;;;;;48.45;22.90;;;4.00;99.90;;;;;;4932113;29;20031;-79
2022/02/04 17:36:50;;;;;;;52.50;26.40;;;3.90;99.90;;;;;;4936681;29;20031;-79
2022/02/04 17:39:20;;;;;;;39.60;21.60;;;3.90;99.90;;;;;;4934001;29;20032;-80
2022/02/04 17:41:48;;;;;;;43.90;22.90;;;3.80;99.90;;;;;;4936338;29;20012;-80
2022/02/04 17:44:16;;;;;;;37.47;21.40;;;3.70;99.90;;;;;;4939076;29;20047;-80
2022/02/04 17:46:43;;;;;;;37.67;22.63;;;3.60;99.90;;;;;;4930945;29;20028;-77
2022/02/04 17:52:13;;;;;;;;;;;3.70;99.90;;;;;;4904695;29;20536;-79
2022/02/04 17:54:49;;;;;;;38.85;19.38;;;3.60;99.90;;;;;;4920356;29;19919;-78
2022/02/04 17:57:19;;;;;;;41.38;20.13;;;3.60;99.90;;;;;;4924984;29;20028;-78
2022/02/04 18:00:05;;;;;;;31.63;16.05;;;3.60;99.90;;;;;;4937182;29;20040;-78
2022/02/04 18:07:54;;;;;;;38.38;17.17;;;3.70;99.90;;;;;;4918089;29;20115;-78
2022/02/04 18:10:22;;;;;;;35.15;18.02;;;3.70;99.90;;;;;;4916308;29;20056;-78
2022/02/04 18:12:49;;;;;;;39.67;17.50;;;3.70;99.90;;;;;;4921812;29;20047;-79
2022/02/04 18:15:15;;;;;;;36.22;16.90;;;3.80;99.90;;;;;;4921288;29;20103;-79
2022/02/04 18:17:41;;;;;;;39.15;17.27;;;3.80;99.90;;;;;;4919178;29;20032;-79
2022/02/04 18:20:08;;;;;;;39.70;17.65;;;3.80;99.90;;;;;;4920388;29;20548;-79
2022/02/04 18:22:35;;;;;;;38.22;16.52;;;3.90;99.90;;;;;;4921577;29;20084;-78
2022/02/04 18:25:01;;;;;;;33.22;13.63;;;3.80;99.90;;;;;;4904904;29;20072;-79
2022/02/04 18:27:27;;;;;;;33.38;13.70;;;3.70;99.90;;;;;;4903440;29;20549;-78
2022/02/04 18:29:55;;;;;;;34.97;13.77;;;3.80;99.90;;;;;;4904766;29;20032;-78
2022/02/04 18:32:24;;;;;;;24.42;12.80;;;3.90;99.90;;;;;;4899763;29;20188;-78
2022/02/04 18:34:52;;;;;;;27.67;12.88;;;3.90;99.90;;;;;;4899275;29;20048;-78
2022/02/04 18:37:18;;;;;;;22.20;10.52;;;3.80;99.90;;;;;;4904946;29;20028;-79
2022/02/04 18:45:03;;;;;;;32.35;14.18;;;3.70;99.90;;;;;;4934440;29;20051;-79
2022/02/04 18:47:31;;;;;;;39.97;20.25;;;3.60;99.90;;;;;;4921890;29;20127;-81
2022/02/04 18:50:06;;;;;;;88.93;36.03;;;3.50;99.90;;;;;;4923267;29;20016;-79
2022/02/04 18:52:41;;;;;;;94.55;37.88;;;3.40;99.90;;;;;;4938680;29;20028;-79
2022/02/04 18:57:36;;;;;;;76.72;31.00;;;3.50;99.90;;;;;;4937910;29;20091;-79
2022/02/04 19:00:17;;;;;;;68.13;27.92;;;3.40;99.90;;;;;;4927514;29;20382;-79
2022/02/04 19:02:45;;;;;;;71.90;28.75;;;3.30;99.90;;;;;;4904340;29;20032;-77
2022/02/04 19:05:18;;;;;;;59.08;25.08;;;3.20;99.90;;;;;;4907133;29;20056;-79
2022/02/04 19:10:15;;;;;;;51.53;23.80;;;3.00;99.90;;;;;;4997394;23;20012;-79
2022/02/04 19:12:52;;;;;;;;;;;2.90;99.90;;;;;;4975698;29;20059;-79
2022/02/04 19:15:25;;;;;;;31.67;14.45;;;2.80;99.90;;;;;;4973429;29;19914;-81
2022/02/04 19:17:57;;;;;;;37.40;15.63;;;2.70;99.90;;;;;;4979502;28;20086;-79
2022/02/04 19:20:37;;;;;;;28.77;15.05;;;2.60;99.90;;;;;;4961809;29;20028;-79
2022/02/04 19:23:07;;;;;;;31.65;16.00;;;2.50;99.90;;;;;;4954142;29;20023;-78
2022/02/04 19:25:36;;;;;;;30.90;16.50;;;2.50;99.90;;;;;;4974451;28;20012;-80
2022/02/04 19:28:04;;;;;;;30.38;14.43;;;2.40;99.90;;;;;;4960133;29;20028;-78
2022/02/04 19:30:31;;;;;;;22.75;10.60;;;2.40;99.90;;;;;;4966920;29;20039;-79
2022/02/04 19:32:57;;;;;;;29.52;12.10;;;2.40;99.90;;;;;;4950392;29;20027;-78
2022/02/04 19:35:23;;;;;;;27.98;12.45;;;2.70;99.90;;;;;;4977116;29;20023;-80
2022/02/04 19:37:52;;;;;;;;;;;2.70;99.90;;;;;;4966149;29;20015;-80
2022/02/04 19:40:18;;;;;;;40.97;17.42;;;2.70;99.90;;;;;;4966166;28;19901;-79
2022/02/04 19:42:48;;;;;;;33.47;14.88;;;2.70;99.90;;;;;;4979617;28;20086;-78
2022/02/04 19:45:24;;;;;;;28.85;15.07;;;2.70;99.90;;;;;;4964750;29;20031;-78
2022/02/04 19:47:59;;;;;;;24.17;12.75;;;2.70;99.90;;;;;;4954101;29;20464;-78
2022/02/04 19:50:39;;;;;;;38.28;17.23;;;2.70;99.90;;;;;;4959174;29;20412;-78
2022/02/04 20:18:24;;;;;;;;;;;2.50;99.90;;;;;;4974526;29;20051;-78